sensor_id;sensor_type;location;lat;lon;timestamp;temperature;humidity
17341;DHT22;8788;49.930;8.660;2024-01-30T00:00:09;3.70;99.90
17341;DHT22;8788;49.930;8.660;2024-01-30T00:02:37;3.70;99.90
17341;DHT22;8788;49.930;8.660;2024-01-30T00:05:05;3.70;99.90
17341;DHT22;8788;49.930;8.660;2024-01-30T00:07:33;3.70;99.90
17341;DHT22;8788;49.930;8.660;2024-01-30T00:10:01;3.70;99.90
17341;DHT22;8788;49.930;8.660;2024-01-30T00:12:28;3.70;99.90
17341;DHT22;8788;49.930;8.660;2024-01-30T00:14:55;3.70;99.90
17341;DHT22;8788;49.930;8.660;2024-01-30T00:17:22;3.60;99.90
17341;DHT22;8788;49.930;8.660;2024-01-30T00:19:50;3.60;99.90
17341;DHT22;8788;49.930;8.660;2024-01-30T00:22:17;3.60;99.90
17341;DHT22;8788;49.930;8.660;2024-01-30T00:24:44;3.60;99.90
17341;DHT22;8788;49.930;8.660;2024-01-30T00:27:13;3.50;99.90
17341;DHT22;8788;49.930;8.660;2024-01-30T00:29:40;3.60;99.90
17341;DHT22;8788;49.930;8.660;2024-01-30T00:32:07;3.60;99.90
17341;DHT22;8788;49.930;8.660;2024-01-30T00:34:34;3.60;99.90
17341;DHT22;8788;49.930;8.660;2024-01-30T00:37:01;3.50;99.90
17341;DHT22;8788;49.930;8.660;2024-01-30T00:39:28;3.60;99.90
17341;DHT22;8788;49.930;8.660;2024-01-30T00:41:55;3.50;99.90
17341;DHT22;8788;49.930;8.660;2024-01-30T00:44:24;3.50;99.90
17341;DHT22;8788;49.930;8.660;2024-01-30T00:46:51;3.40;99.90
17341;DHT22;8788;49.930;8.660;2024-01-30T00:49:18;3.40;99.90
17341;DHT22;8788;49.930;8.660;2024-01-30T00:51:45;3.40;99.90
17341;DHT22;8788;49.930;8.660;2024-01-30T00:54:12;3.30;99.90
17341;DHT22;8788;49.930;8.660;2024-01-30T00:56:39;3.30;99.90
17341;DHT22;8788;49.930;8.660;2024-01-30T00:59:06;3.30;99.90
17341;DHT22;8788;49.930;8.660;2024-01-30T01:01:34;3.30;99.90
17341;DHT22;8788;49.930;8.660;2024-01-30T01:04:01;3.30;99.90
17341;DHT22;8788;49.930;8.660;2024-01-30T01:06:29;3.30;99.90
17341;DHT22;8788;49.930;8.660;2024-01-30T01:08:56;3.20;99.90
17341;DHT22;8788;49.930;8.660;2024-01-30T01:11:23;3.20;99.90
17341;DHT22;8788;49.930;8.660;2024-01-30T01:13:50;3.20;99.90
17341;DHT22;8788;49.930;8.660;2024-01-30T01:16:17;3.20;99.90
17341;DHT22;8788;49.930;8.660;2024-01-30T01:18:45;3.20;99.90
17341;DHT22;8788;49.930;8.660;2024-01-30T01:21:12;3.20;99.90
17341;DHT22;8788;49.930;8.660;2024-01-30T01:23:39;3.20;99.90
17341;DHT22;8788;49.930;8.660;2024-01-30T01:26:07;3.20;99.90
17341;DHT22;8788;49.930;8.660;2024-01-30T01:28:35;3.30;99.90
17341;DHT22;8788;49.930;8.660;2024-01-30T01:31:02;3.20;99.90
17341;DHT22;8788;49.930;8.660;2024-01-30T01:33:31;3.20;99.90
17341;DHT22;8788;49.930;8.660;2024-01-30T01:36:00;3.20;99.90
17341;DHT22;8788;49.930;8.660;2024-01-30T01:38:28;3.20;99.90
17341;DHT22;8788;49.930;8.660;2024-01-30T01:40:55;3.20;99.90
17341;DHT22;8788;49.930;8.660;2024-01-30T01:43:22;3.20;99.90
17341;DHT22;8788;49.930;8.660;2024-01-30T01:45:49;3.20;99.90
17341;DHT22;8788;49.930;8.660;2024-01-30T01:48:16;3.10;99.90
17341;DHT22;8788;49.930;8.660;2024-01-30T01:50:43;3.10;99.90
17341;DHT22;8788;49.930;8.660;2024-01-30T01:53:12;3.10;99.90
17341;DHT22;8788;49.930;8.660;2024-01-30T01:55:39;3.10;99.90
17341;DHT22;8788;49.930;8.660;2024-01-30T01:58:07;3.10;99.90
17341;DHT22;8788;49.930;8.660;2024-01-30T02:00:36;3.10;99.90
17341;DHT22;8788;49.930;8.660;2024-01-30T02:03:06;3.10;99.90
17341;DHT22;8788;49.930;8.660;2024-01-30T02:05:33;3.10;99.90
17341;DHT22;8788;49.930;8.660;2024-01-30T02:08:01;3.10;99.90
17341;DHT22;8788;49.930;8.660;2024-01-30T02:10:30;3.00;99.90
17341;DHT22;8788;49.930;8.660;2024-01-30T02:12:57;3.00;99.90
17341;DHT22;8788;49.930;8.660;2024-01-30T02:15:24;3.00;99.90
17341;DHT22;8788;49.930;8.660;2024-01-30T02:17:51;3.00;99.90
17341;DHT22;8788;49.930;8.660;2024-01-30T02:20:18;3.00;99.90
17341;DHT22;8788;49.930;8.660;2024-01-30T02:22:47;3.00;99.90
17341;DHT22;8788;49.930;8.660;2024-01-30T02:25:15;3.00;99.90
17341;DHT22;8788;49.930;8.660;2024-01-30T02:27:42;3.00;99.90
17341;DHT22;8788;49.930;8.660;2024-01-30T02:30:10;2.90;99.90
17341;DHT22;8788;49.930;8.660;2024-01-30T02:32:37;2.90;99.90
17341;DHT22;8788;49.930;8.660;2024-01-30T02:35:04;2.80;99.90
17341;DHT22;8788;49.930;8.660;2024-01-30T02:37:31;2.80;99.90
17341;DHT22;8788;49.930;8.660;2024-01-30T02:40:00;2.80;99.90
17341;DHT22;8788;49.930;8.660;2024-01-30T02:42:27;2.80;99.90
17341;DHT22;8788;49.930;8.660;2024-01-30T02:44:54;2.80;99.90
17341;DHT22;8788;49.930;8.660;2024-01-30T02:47:21;2.80;99.90
17341;DHT22;8788;49.930;8.660;2024-01-30T02:49:48;2.80;99.90
17341;DHT22;8788;49.930;8.660;2024-01-30T02:52:15;2.80;99.90
17341;DHT22;8788;49.930;8.660;2024-01-30T02:54:42;2.80;99.90
17341;DHT22;8788;49.930;8.660;2024-01-30T02:57:10;2.80;99.90
17341;DHT22;8788;49.930;8.660;2024-01-30T02:59:37;2.80;99.90
17341;DHT22;8788;49.930;8.660;2024-01-30T03:02:04;2.80;99.90
17341;DHT22;8788;49.930;8.660;2024-01-30T03:04:31;2.80;99.90
17341;DHT22;8788;49.930;8.660;2024-01-30T03:06:58;2.80;99.90
17341;DHT22;8788;49.930;8.660;2024-01-30T03:09:25;2.80;99.90
17341;DHT22;8788;49.930;8.660;2024-01-30T03:11:52;2.80;99.90
17341;DHT22;8788;49.930;8.660;2024-01-30T03:14:21;2.80;99.90
17341;DHT22;8788;49.930;8.660;2024-01-30T03:16:48;2.70;99.90
17341;DHT22;8788;49.930;8.660;2024-01-30T03:19:15;2.70;99.90
17341;DHT22;8788;49.930;8.660;2024-01-30T03:21:42;2.70;99.90
17341;DHT22;8788;49.930;8.660;2024-01-30T03:24:09;2.70;99.90
17341;DHT22;8788;49.930;8.660;2024-01-30T03:26:36;2.70;99.90
17341;DHT22;8788;49.930;8.660;2024-01-30T03:29:03;2.70;99.90
17341;DHT22;8788;49.930;8.660;2024-01-30T03:31:32;2.70;99.90
17341;DHT22;8788;49.930;8.660;2024-01-30T03:33:59;2.70;99.90
17341;DHT22;8788;49.930;8.660;2024-01-30T03:36:26;2.70;99.90
17341;DHT22;8788;49.930;8.660;2024-01-30T03:38:53;2.70;99.90
17341;DHT22;8788;49.930;8.660;2024-01-30T03:41:20;2.60;99.90
17341;DHT22;8788;49.930;8.660;2024-01-30T03:43:47;2.60;99.90
17341;DHT22;8788;49.930;8.660;2024-01-30T03:46:15;2.60;99.90
17341;DHT22;8788;49.930;8.660;2024-01-30T03:48:45;2.60;99.90
17341;DHT22;8788;49.930;8.660;2024-01-30T03:51:12;2.60;99.90
17341;DHT22;8788;49.930;8.660;2024-01-30T03:53:40;2.60;99.90
17341;DHT22;8788;49.930;8.660;2024-01-30T03:56:07;2.60;99.90
17341;DHT22;8788;49.930;8.660;2024-01-30T03:58:34;2.60;99.90
17341;DHT22;8788;49.930;8.660;2024-01-30T04:01:01;2.50;99.90
17341;DHT22;8788;49.930;8.660;2024-01-30T04:03:29;2.60;99.90
17341;DHT22;8788;49.930;8.660;2024-01-30T04:05:57;2.60;99.90
17341;DHT22;8788;49.930;8.660;2024-01-30T04:08:25;2.60;99.90
17341;DHT22;8788;49.930;8.660;2024-01-30T04:10:52;2.60;99.90
17341;DHT22;8788;49.930;8.660;2024-01-30T04:13:19;2.50;99.90
17341;DHT22;8788;49.930;8.660;2024-01-30T04:15:46;2.60;99.90
17341;DHT22;8788;49.930;8.660;2024-01-30T04:18:13;2.60;99.90
17341;DHT22;8788;49.930;8.660;2024-01-30T04:20:40;2.60;99.90
17341;DHT22;8788;49.930;8.660;2024-01-30T04:23:08;2.60;99.90
17341;DHT22;8788;49.930;8.660;2024-01-30T04:25:35;2.60;99.90
17341;DHT22;8788;49.930;8.660;2024-01-30T04:28:03;2.60;99.90
17341;DHT22;8788;49.930;8.660;2024-01-30T04:30:30;2.60;99.90
17341;DHT22;8788;49.930;8.660;2024-01-30T04:32:57;2.60;99.90
17341;DHT22;8788;49.930;8.660;2024-01-30T04:35:24;2.60;99.90
17341;DHT22;8788;49.930;8.660;2024-01-30T04:37:52;2.60;99.90
17341;DHT22;8788;49.930;8.660;2024-01-30T04:40:21;2.60;99.90
17341;DHT22;8788;49.930;8.660;2024-01-30T04:42:48;2.60;99.90
17341;DHT22;8788;49.930;8.660;2024-01-30T04:45:15;2.60;99.90
17341;DHT22;8788;49.930;8.660;2024-01-30T04:47:42;2.60;99.90
17341;DHT22;8788;49.930;8.660;2024-01-30T04:50:10;2.60;99.90
17341;DHT22;8788;49.930;8.660;2024-01-30T04:52:37;2.60;99.90
17341;DHT22;8788;49.930;8.660;2024-01-30T04:55:04;2.50;99.90
17341;DHT22;8788;49.930;8.660;2024-01-30T04:57:33;2.50;99.90
17341;DHT22;8788;49.930;8.660;2024-01-30T05:00:00;2.40;99.90
17341;DHT22;8788;49.930;8.660;2024-01-30T05:02:27;2.40;99.90
17341;DHT22;8788;49.930;8.660;2024-01-30T05:04:54;2.40;99.90
17341;DHT22;8788;49.930;8.660;2024-01-30T05:07:21;2.40;99.90
17341;DHT22;8788;49.930;8.660;2024-01-30T05:09:48;2.50;99.90
17341;DHT22;8788;49.930;8.660;2024-01-30T05:12:15;2.50;99.90
17341;DHT22;8788;49.930;8.660;2024-01-30T05:14:44;2.50;99.90
17341;DHT22;8788;49.930;8.660;2024-01-30T05:17:11;2.50;99.90
17341;DHT22;8788;49.930;8.660;2024-01-30T05:19:38;2.50;99.90
17341;DHT22;8788;49.930;8.660;2024-01-30T05:22:05;2.50;99.90
17341;DHT22;8788;49.930;8.660;2024-01-30T05:24:32;2.50;99.90
17341;DHT22;8788;49.930;8.660;2024-01-30T05:26:59;2.50;99.90
17341;DHT22;8788;49.930;8.660;2024-01-30T05:29:27;2.50;99.90
17341;DHT22;8788;49.930;8.660;2024-01-30T05:31:55;2.50;99.90
17341;DHT22;8788;49.930;8.660;2024-01-30T05:34:22;2.50;99.90
17341;DHT22;8788;49.930;8.660;2024-01-30T05:36:49;2.50;99.90
17341;DHT22;8788;49.930;8.660;2024-01-30T05:39:16;2.50;99.90
17341;DHT22;8788;49.930;8.660;2024-01-30T05:41:44;2.50;99.90
17341;DHT22;8788;49.930;8.660;2024-01-30T05:44:11;2.50;99.90
17341;DHT22;8788;49.930;8.660;2024-01-30T05:46:38;2.50;99.90
17341;DHT22;8788;49.930;8.660;2024-01-30T05:49:06;2.50;99.90
17341;DHT22;8788;49.930;8.660;2024-01-30T05:51:33;2.50;99.90
17341;DHT22;8788;49.930;8.660;2024-01-30T05:54:00;2.50;99.90
17341;DHT22;8788;49.930;8.660;2024-01-30T05:56:29;2.50;99.90
17341;DHT22;8788;49.930;8.660;2024-01-30T05:58:56;2.40;99.90
17341;DHT22;8788;49.930;8.660;2024-01-30T06:01:23;2.40;99.90
17341;DHT22;8788;49.930;8.660;2024-01-30T06:03:50;2.40;99.90
17341;DHT22;8788;49.930;8.660;2024-01-30T06:06:18;2.40;99.90
17341;DHT22;8788;49.930;8.660;2024-01-30T06:08:45;2.40;99.90
17341;DHT22;8788;49.930;8.660;2024-01-30T06:11:12;2.30;99.90
17341;DHT22;8788;49.930;8.660;2024-01-30T06:13:39;2.30;99.90
17341;DHT22;8788;49.930;8.660;2024-01-30T06:16:09;2.30;99.90
17341;DHT22;8788;49.930;8.660;2024-01-30T06:18:37;2.30;99.90
17341;DHT22;8788;49.930;8.660;2024-01-30T06:21:04;2.30;99.90
17341;DHT22;8788;49.930;8.660;2024-01-30T06:23:33;2.30;99.90
17341;DHT22;8788;49.930;8.660;2024-01-30T06:26:00;2.30;99.90
17341;DHT22;8788;49.930;8.660;2024-01-30T06:28:27;2.30;99.90
17341;DHT22;8788;49.930;8.660;2024-01-30T06:30:54;2.30;99.90
17341;DHT22;8788;49.930;8.660;2024-01-30T06:33:21;2.30;99.90
17341;DHT22;8788;49.930;8.660;2024-01-30T06:35:48;2.30;99.90
17341;DHT22;8788;49.930;8.660;2024-01-30T06:38:15;2.30;99.90
17341;DHT22;8788;49.930;8.660;2024-01-30T06:40:44;2.30;99.90
17341;DHT22;8788;49.930;8.660;2024-01-30T06:43:11;2.30;99.90
17341;DHT22;8788;49.930;8.660;2024-01-30T06:45:38;2.30;99.90
17341;DHT22;8788;49.930;8.660;2024-01-30T06:48:06;2.30;99.90
17341;DHT22;8788;49.930;8.660;2024-01-30T06:50:33;2.30;99.90
17341;DHT22;8788;49.930;8.660;2024-01-30T06:53:00;2.30;99.90
17341;DHT22;8788;49.930;8.660;2024-01-30T06:55:27;2.30;99.90
17341;DHT22;8788;49.930;8.660;2024-01-30T06:57:55;2.30;99.90
17341;DHT22;8788;49.930;8.660;2024-01-30T07:00:22;2.30;99.90
17341;DHT22;8788;49.930;8.660;2024-01-30T07:02:49;2.30;99.90
17341;DHT22;8788;49.930;8.660;2024-01-30T07:05:16;2.30;99.90
17341;DHT22;8788;49.930;8.660;2024-01-30T07:07:44;2.30;99.90
17341;DHT22;8788;49.930;8.660;2024-01-30T07:10:11;2.30;99.90
17341;DHT22;8788;49.930;8.660;2024-01-30T07:12:38;2.20;99.90
17341;DHT22;8788;49.930;8.660;2024-01-30T07:15:07;2.20;99.90
17341;DHT22;8788;49.930;8.660;2024-01-30T07:17:34;2.20;99.90
17341;DHT22;8788;49.930;8.660;2024-01-30T07:20:02;2.30;99.90
17341;DHT22;8788;49.930;8.660;2024-01-30T07:22:30;2.30;99.90
17341;DHT22;8788;49.930;8.660;2024-01-30T07:24:57;2.30;99.90
17341;DHT22;8788;49.930;8.660;2024-01-30T07:27:24;2.30;99.90
17341;DHT22;8788;49.930;8.660;2024-01-30T07:29:51;2.40;99.90
17341;DHT22;8788;49.930;8.660;2024-01-30T07:32:20;2.40;99.90
17341;DHT22;8788;49.930;8.660;2024-01-30T07:34:47;2.40;99.90
17341;DHT22;8788;49.930;8.660;2024-01-30T07:37:14;2.40;99.90
17341;DHT22;8788;49.930;8.660;2024-01-30T07:39:41;2.40;99.90
17341;DHT22;8788;49.930;8.660;2024-01-30T07:42:09;2.40;99.90
17341;DHT22;8788;49.930;8.660;2024-01-30T07:44:36;2.50;99.90
17341;DHT22;8788;49.930;8.660;2024-01-30T07:47:04;2.50;99.90
17341;DHT22;8788;49.930;8.660;2024-01-30T07:49:33;2.60;99.90
17341;DHT22;8788;49.930;8.660;2024-01-30T07:52:00;2.60;99.90
17341;DHT22;8788;49.930;8.660;2024-01-30T07:54:27;2.70;99.90
17341;DHT22;8788;49.930;8.660;2024-01-30T07:56:59;2.70;99.90
17341;DHT22;8788;49.930;8.660;2024-01-30T07:59:26;2.70;99.90
17341;DHT22;8788;49.930;8.660;2024-01-30T08:01:53;2.80;99.90
17341;DHT22;8788;49.930;8.660;2024-01-30T08:04:20;2.80;99.90
17341;DHT22;8788;49.930;8.660;2024-01-30T08:06:48;2.90;99.90
17341;DHT22;8788;49.930;8.660;2024-01-30T08:09:15;3.00;99.90
17341;DHT22;8788;49.930;8.660;2024-01-30T08:11:42;3.00;99.90
17341;DHT22;8788;49.930;8.660;2024-01-30T08:14:09;3.10;99.90
17341;DHT22;8788;49.930;8.660;2024-01-30T08:16:36;3.10;99.90
17341;DHT22;8788;49.930;8.660;2024-01-30T08:19:03;3.10;99.90
17341;DHT22;8788;49.930;8.660;2024-01-30T08:21:30;3.20;99.90
17341;DHT22;8788;49.930;8.660;2024-01-30T08:24:03;3.20;99.90
17341;DHT22;8788;49.930;8.660;2024-01-30T08:26:31;3.30;99.90
17341;DHT22;8788;49.930;8.660;2024-01-30T08:28:58;3.30;99.90
17341;DHT22;8788;49.930;8.660;2024-01-30T08:31:26;3.40;99.90
17341;DHT22;8788;49.930;8.660;2024-01-30T08:33:53;3.40;99.90
17341;DHT22;8788;49.930;8.660;2024-01-30T08:36:20;3.50;99.90
17341;DHT22;8788;49.930;8.660;2024-01-30T08:38:47;3.50;99.90
17341;DHT22;8788;49.930;8.660;2024-01-30T08:41:16;3.60;99.90
17341;DHT22;8788;49.930;8.660;2024-01-30T08:43:43;3.70;99.90
17341;DHT22;8788;49.930;8.660;2024-01-30T08:46:11;3.80;99.90
17341;DHT22;8788;49.930;8.660;2024-01-30T08:48:38;3.90;99.90
17341;DHT22;8788;49.930;8.660;2024-01-30T08:51:05;3.90;99.90
17341;DHT22;8788;49.930;8.660;2024-01-30T08:53:35;4.00;99.90
17341;DHT22;8788;49.930;8.660;2024-01-30T08:56:02;4.00;99.90
17341;DHT22;8788;49.930;8.660;2024-01-30T08:58:31;4.10;99.90
17341;DHT22;8788;49.930;8.660;2024-01-30T09:00:58;4.10;99.90
17341;DHT22;8788;49.930;8.660;2024-01-30T09:03:25;4.20;99.90
17341;DHT22;8788;49.930;8.660;2024-01-30T09:05:53;4.20;99.90
17341;DHT22;8788;49.930;8.660;2024-01-30T09:08:20;4.20;99.90
17341;DHT22;8788;49.930;8.660;2024-01-30T09:10:47;4.30;99.90
17341;DHT22;8788;49.930;8.660;2024-01-30T09:13:15;4.30;99.90
17341;DHT22;8788;49.930;8.660;2024-01-30T09:15:43;4.40;99.90
17341;DHT22;8788;49.930;8.660;2024-01-30T09:18:10;4.50;99.90
17341;DHT22;8788;49.930;8.660;2024-01-30T09:20:38;4.60;99.90
17341;DHT22;8788;49.930;8.660;2024-01-30T09:23:05;4.70;99.90
17341;DHT22;8788;49.930;8.660;2024-01-30T09:25:32;4.70;99.90
17341;DHT22;8788;49.930;8.660;2024-01-30T09:28:00;4.70;99.90
17341;DHT22;8788;49.930;8.660;2024-01-30T09:30:27;4.80;99.90
17341;DHT22;8788;49.930;8.660;2024-01-30T09:32:56;4.90;99.90
17341;DHT22;8788;49.930;8.660;2024-01-30T09:35:23;5.00;99.90
17341;DHT22;8788;49.930;8.660;2024-01-30T09:37:50;5.00;99.90
17341;DHT22;8788;49.930;8.660;2024-01-30T09:40:18;5.10;99.90
17341;DHT22;8788;49.930;8.660;2024-01-30T09:42:47;5.10;99.90
17341;DHT22;8788;49.930;8.660;2024-01-30T09:45:16;5.20;99.90
17341;DHT22;8788;49.930;8.660;2024-01-30T09:47:44;5.40;99.90
17341;DHT22;8788;49.930;8.660;2024-01-30T09:50:14;5.50;99.90
17341;DHT22;8788;49.930;8.660;2024-01-30T09:52:43;5.60;99.90
17341;DHT22;8788;49.930;8.660;2024-01-30T09:55:10;5.70;99.90
17341;DHT22;8788;49.930;8.660;2024-01-30T09:57:38;5.80;99.90
17341;DHT22;8788;49.930;8.660;2024-01-30T10:00:06;6.00;99.90
17341;DHT22;8788;49.930;8.660;2024-01-30T10:02:40;6.20;99.90
17341;DHT22;8788;49.930;8.660;2024-01-30T10:05:08;6.30;99.90
17341;DHT22;8788;49.930;8.660;2024-01-30T10:07:36;6.30;99.90
17341;DHT22;8788;49.930;8.660;2024-01-30T10:10:05;6.40;99.90
17341;DHT22;8788;49.930;8.660;2024-01-30T10:12:33;6.40;99.90
17341;DHT22;8788;49.930;8.660;2024-01-30T10:15:00;6.50;99.90
17341;DHT22;8788;49.930;8.660;2024-01-30T10:17:27;6.60;99.90
17341;DHT22;8788;49.930;8.660;2024-01-30T10:19:54;6.60;99.90
17341;DHT22;8788;49.930;8.660;2024-01-30T10:22:21;6.70;99.90
17341;DHT22;8788;49.930;8.660;2024-01-30T10:24:50;6.70;99.90
17341;DHT22;8788;49.930;8.660;2024-01-30T10:27:25;6.80;99.90
17341;DHT22;8788;49.930;8.660;2024-01-30T10:29:52;6.80;99.90
17341;DHT22;8788;49.930;8.660;2024-01-30T10:32:20;6.90;99.90
17341;DHT22;8788;49.930;8.660;2024-01-30T10:34:47;6.90;99.90
17341;DHT22;8788;49.930;8.660;2024-01-30T10:37:15;7.00;99.90
17341;DHT22;8788;49.930;8.660;2024-01-30T10:39:44;7.00;99.90
17341;DHT22;8788;49.930;8.660;2024-01-30T10:42:13;7.00;99.90
17341;DHT22;8788;49.930;8.660;2024-01-30T10:44:47;7.10;99.90
17341;DHT22;8788;49.930;8.660;2024-01-30T10:47:20;7.20;99.90
17341;DHT22;8788;49.930;8.660;2024-01-30T10:49:49;7.30;99.90
17341;DHT22;8788;49.930;8.660;2024-01-30T10:52:18;7.30;99.90
17341;DHT22;8788;49.930;8.660;2024-01-30T10:54:46;7.50;99.90
17341;DHT22;8788;49.930;8.660;2024-01-30T10:57:16;7.50;99.90
17341;DHT22;8788;49.930;8.660;2024-01-30T10:59:45;7.50;99.90
17341;DHT22;8788;49.930;8.660;2024-01-30T11:02:14;7.60;99.90
17341;DHT22;8788;49.930;8.660;2024-01-30T11:04:41;7.70;99.90
17341;DHT22;8788;49.930;8.660;2024-01-30T11:07:15;7.80;99.90
17341;DHT22;8788;49.930;8.660;2024-01-30T11:09:48;7.90;99.90
17341;DHT22;8788;49.930;8.660;2024-01-30T11:12:21;8.00;99.90
17341;DHT22;8788;49.930;8.660;2024-01-30T11:14:50;8.20;99.90
17341;DHT22;8788;49.930;8.660;2024-01-30T11:17:29;8.30;99.90
17341;DHT22;8788;49.930;8.660;2024-01-30T11:20:10;8.40;99.90
17341;DHT22;8788;49.930;8.660;2024-01-30T11:22:37;8.60;99.90
17341;DHT22;8788;49.930;8.660;2024-01-30T11:25:04;8.60;99.90
17341;DHT22;8788;49.930;8.660;2024-01-30T11:27:34;8.40;99.90
17341;DHT22;8788;49.930;8.660;2024-01-30T11:30:01;8.30;99.90
17341;DHT22;8788;49.930;8.660;2024-01-30T11:32:29;8.40;99.90
17341;DHT22;8788;49.930;8.660;2024-01-30T11:34:56;8.60;99.90
17341;DHT22;8788;49.930;8.660;2024-01-30T11:37:25;8.80;99.90
17341;DHT22;8788;49.930;8.660;2024-01-30T11:39:54;9.20;99.90
17341;DHT22;8788;49.930;8.660;2024-01-30T11:42:23;9.60;99.90
17341;DHT22;8788;49.930;8.660;2024-01-30T11:44:52;10.50;99.90
17341;DHT22;8788;49.930;8.660;2024-01-30T11:47:20;11.70;99.90
17341;DHT22;8788;49.930;8.660;2024-01-30T11:49:47;12.90;99.90
17341;DHT22;8788;49.930;8.660;2024-01-30T11:52:14;13.20;99.90
17341;DHT22;8788;49.930;8.660;2024-01-30T11:54:41;13.00;99.90
17341;DHT22;8788;49.930;8.660;2024-01-30T11:57:09;12.30;99.90
17341;DHT22;8788;49.930;8.660;2024-01-30T11:59:36;11.80;99.90
17341;DHT22;8788;49.930;8.660;2024-01-30T12:02:04;11.60;99.90
17341;DHT22;8788;49.930;8.660;2024-01-30T12:04:31;11.30;99.90
17341;DHT22;8788;49.930;8.660;2024-01-30T12:06:58;11.30;99.90
17341;DHT22;8788;49.930;8.660;2024-01-30T12:09:26;11.20;99.90
17341;DHT22;8788;49.930;8.660;2024-01-30T12:11:53;11.20;99.90
17341;DHT22;8788;49.930;8.660;2024-01-30T12:14:22;11.10;99.90
17341;DHT22;8788;49.930;8.660;2024-01-30T12:16:50;10.80;99.90
17341;DHT22;8788;49.930;8.660;2024-01-30T12:19:25;10.50;99.90
17341;DHT22;8788;49.930;8.660;2024-01-30T12:21:56;10.40;99.90
17341;DHT22;8788;49.930;8.660;2024-01-30T12:24:24;10.40;99.90
17341;DHT22;8788;49.930;8.660;2024-01-30T12:26:52;10.40;99.90
17341;DHT22;8788;49.930;8.660;2024-01-30T12:29:20;10.50;99.90
17341;DHT22;8788;49.930;8.660;2024-01-30T12:31:48;10.60;99.90
17341;DHT22;8788;49.930;8.660;2024-01-30T12:34:15;10.60;99.90
17341;DHT22;8788;49.930;8.660;2024-01-30T12:36:44;10.70;99.90
17341;DHT22;8788;49.930;8.660;2024-01-30T12:39:11;10.80;99.90
17341;DHT22;8788;49.930;8.660;2024-01-30T12:41:40;11.00;99.90
17341;DHT22;8788;49.930;8.660;2024-01-30T12:44:07;11.20;99.90
17341;DHT22;8788;49.930;8.660;2024-01-30T12:46:34;11.30;99.90
17341;DHT22;8788;49.930;8.660;2024-01-30T12:49:01;11.30;99.90
17341;DHT22;8788;49.930;8.660;2024-01-30T12:51:28;11.30;99.90
17341;DHT22;8788;49.930;8.660;2024-01-30T12:53:57;11.30;99.90
17341;DHT22;8788;49.930;8.660;2024-01-30T12:56:24;11.30;99.90
17341;DHT22;8788;49.930;8.660;2024-01-30T12:58:51;11.40;99.90
17341;DHT22;8788;49.930;8.660;2024-01-30T13:01:19;11.40;99.90
17341;DHT22;8788;49.930;8.660;2024-01-30T13:03:47;11.40;99.90
17341;DHT22;8788;49.930;8.660;2024-01-30T13:06:14;11.40;99.90
17341;DHT22;8788;49.930;8.660;2024-01-30T13:08:41;11.50;99.90
17341;DHT22;8788;49.930;8.660;2024-01-30T13:11:09;11.50;99.90
17341;DHT22;8788;49.930;8.660;2024-01-30T13:13:38;11.60;99.90
17341;DHT22;8788;49.930;8.660;2024-01-30T13:16:05;11.70;99.90
17341;DHT22;8788;49.930;8.660;2024-01-30T13:18:32;11.60;99.90
17341;DHT22;8788;49.930;8.660;2024-01-30T13:20:59;11.70;99.90
17341;DHT22;8788;49.930;8.660;2024-01-30T13:23:26;11.90;99.90
17341;DHT22;8788;49.930;8.660;2024-01-30T13:25:54;12.00;99.90
17341;DHT22;8788;49.930;8.660;2024-01-30T13:28:25;11.90;99.90
17341;DHT22;8788;49.930;8.660;2024-01-30T13:30:52;11.90;99.90
17341;DHT22;8788;49.930;8.660;2024-01-30T13:33:19;11.80;99.90
17341;DHT22;8788;49.930;8.660;2024-01-30T13:35:46;11.80;99.90
17341;DHT22;8788;49.930;8.660;2024-01-30T13:38:14;11.80;99.90
17341;DHT22;8788;49.930;8.660;2024-01-30T13:40:41;11.70;99.90
17341;DHT22;8788;49.930;8.660;2024-01-30T13:43:08;11.70;99.90
17341;DHT22;8788;49.930;8.660;2024-01-30T13:45:37;11.60;99.90
17341;DHT22;8788;49.930;8.660;2024-01-30T13:48:04;11.50;99.90
17341;DHT22;8788;49.930;8.660;2024-01-30T13:50:31;11.40;99.90
17341;DHT22;8788;49.930;8.660;2024-01-30T13:52:59;11.40;99.90
17341;DHT22;8788;49.930;8.660;2024-01-30T13:55:26;11.30;99.90
17341;DHT22;8788;49.930;8.660;2024-01-30T13:57:53;11.30;99.90
17341;DHT22;8788;49.930;8.660;2024-01-30T14:00:21;11.20;99.90
17341;DHT22;8788;49.930;8.660;2024-01-30T14:02:50;11.30;99.90
17341;DHT22;8788;49.930;8.660;2024-01-30T14:05:17;11.20;99.90
17341;DHT22;8788;49.930;8.660;2024-01-30T14:07:44;11.20;99.90
17341;DHT22;8788;49.930;8.660;2024-01-30T14:10:12;11.30;99.90
17341;DHT22;8788;49.930;8.660;2024-01-30T14:12:39;11.30;99.90
17341;DHT22;8788;49.930;8.660;2024-01-30T14:15:08;11.30;99.90
17341;DHT22;8788;49.930;8.660;2024-01-30T14:17:36;11.20;99.90
17341;DHT22;8788;49.930;8.660;2024-01-30T14:20:06;11.10;99.90
17341;DHT22;8788;49.930;8.660;2024-01-30T14:22:34;11.10;99.90
17341;DHT22;8788;49.930;8.660;2024-01-30T14:25:01;11.00;99.90
17341;DHT22;8788;49.930;8.660;2024-01-30T14:27:29;11.00;99.90
17341;DHT22;8788;49.930;8.660;2024-01-30T14:29:56;11.00;99.90
17341;DHT22;8788;49.930;8.660;2024-01-30T14:32:24;11.10;99.90
17341;DHT22;8788;49.930;8.660;2024-01-30T14:34:51;11.10;99.90
17341;DHT22;8788;49.930;8.660;2024-01-30T14:37:20;11.10;99.90
17341;DHT22;8788;49.930;8.660;2024-01-30T14:39:48;11.10;99.90
17341;DHT22;8788;49.930;8.660;2024-01-30T14:42:15;11.00;99.90
17341;DHT22;8788;49.930;8.660;2024-01-30T14:44:43;11.00;99.90
17341;DHT22;8788;49.930;8.660;2024-01-30T14:47:10;10.90;99.90
17341;DHT22;8788;49.930;8.660;2024-01-30T14:49:39;10.90;99.90
17341;DHT22;8788;49.930;8.660;2024-01-30T14:52:06;10.90;99.90
17341;DHT22;8788;49.930;8.660;2024-01-30T14:54:35;10.90;99.90
17341;DHT22;8788;49.930;8.660;2024-01-30T14:57:02;10.90;99.90
17341;DHT22;8788;49.930;8.660;2024-01-30T14:59:29;10.90;99.90
17341;DHT22;8788;49.930;8.660;2024-01-30T15:01:56;10.90;99.90
17341;DHT22;8788;49.930;8.660;2024-01-30T15:04:24;10.90;99.90
17341;DHT22;8788;49.930;8.660;2024-01-30T15:06:51;10.80;99.90
17341;DHT22;8788;49.930;8.660;2024-01-30T15:09:18;10.90;99.90
17341;DHT22;8788;49.930;8.660;2024-01-30T15:11:48;10.90;99.90
17341;DHT22;8788;49.930;8.660;2024-01-30T15:14:16;10.80;99.90
17341;DHT22;8788;49.930;8.660;2024-01-30T15:16:43;10.80;99.90
17341;DHT22;8788;49.930;8.660;2024-01-30T15:19:10;10.80;99.90
17341;DHT22;8788;49.930;8.660;2024-01-30T15:21:37;10.80;99.90
17341;DHT22;8788;49.930;8.660;2024-01-30T15:24:05;10.70;99.90
17341;DHT22;8788;49.930;8.660;2024-01-30T15:26:32;10.70;99.90
17341;DHT22;8788;49.930;8.660;2024-01-30T15:29:00;10.70;99.90
17341;DHT22;8788;49.930;8.660;2024-01-30T15:31:29;10.70;99.90
17341;DHT22;8788;49.930;8.660;2024-01-30T15:33:56;10.70;99.90
17341;DHT22;8788;49.930;8.660;2024-01-30T15:36:23;10.70;99.90
17341;DHT22;8788;49.930;8.660;2024-01-30T15:38:50;10.70;99.90
17341;DHT22;8788;49.930;8.660;2024-01-30T15:41:17;10.70;99.90
17341;DHT22;8788;49.930;8.660;2024-01-30T15:43:44;10.60;99.90
17341;DHT22;8788;49.930;8.660;2024-01-30T15:46:13;10.70;99.90
17341;DHT22;8788;49.930;8.660;2024-01-30T15:48:40;10.70;99.90
17341;DHT22;8788;49.930;8.660;2024-01-30T15:51:07;10.60;99.90
17341;DHT22;8788;49.930;8.660;2024-01-30T15:53:34;10.60;99.90
17341;DHT22;8788;49.930;8.660;2024-01-30T15:56:01;10.60;99.90
17341;DHT22;8788;49.930;8.660;2024-01-30T15:58:29;10.60;99.90